Time;durP1;ratioP1;P1;durP2;ratioP2;P2;SDS_P1;SDS_P2;PMS_P1;PMS_P2;Temp;Humidity;BMP_temperature;BMP_pressure;BME280_temperature;BME280_humidity;BME280_pressure;Samples;Min_cycle;Max_cycle;Signal;HPM_P1;HPM_P2
2022/03/04 00:02:15;;;;;;;137.15;59.08;;;;;;;-0.63;100.00;97205.91;5032686;28;20493;-89
2022/03/04 00:04:41;;;;;;;138.02;58.95;;;;;;;-0.67;100.00;97210.38;5028528;28;20091;-90
2022/03/04 00:07:07;;;;;;;127.28;57.85;;;;;;;-0.68;100.00;97203.38;5020343;28;20025;-89
2022/03/04 00:09:33;;;;;;;135.55;57.60;;;;;;;-0.68;100.00;97203.38;5031315;28;20029;-89
2022/03/04 00:12:02;;;;;;;137.20;55.53;;;;;;;-0.77;100.00;97193.09;5029271;28;20034;-91
2022/03/04 00:14:28;;;;;;;108.22;46.90;;;;;;;-0.78;100.00;97207.13;5027608;28;20024;-89
2022/03/04 00:16:53;;;;;;;107.20;47.78;;;;;;;-0.71;100.00;97206.06;5016817;28;20386;-90
2022/03/04 00:19:24;;;;;;;102.88;46.80;;;;;;;-0.87;100.00;97173.22;5022887;28;20038;-90
2022/03/04 00:21:51;;;;;;;131.60;53.45;;;;;;;-0.66;100.00;97213.88;5036708;28;20103;-90
2022/03/04 00:24:18;;;;;;;141.40;57.92;;;;;;;-0.76;100.00;97196.59;5018307;28;20141;-90
2022/03/04 00:26:44;;;;;;;142.55;60.67;;;;;;;-0.67;100.00;97204.25;5035314;28;20033;-90
2022/03/04 00:29:11;;;;;;;137.77;57.63;;;;;;;-0.75;100.00;97200.94;5027030;28;20059;-90
2022/03/04 00:31:38;;;;;;;129.75;52.85;;;;;;;-0.72;100.00;97204.38;5023438;28;20033;-90
2022/03/04 00:34:06;;;;;;;109.47;49.85;;;;;;;-0.72;100.00;97196.50;5039541;28;20033;-89
2022/03/04 00:36:33;;;;;;;88.20;39.22;;;;;;;-0.74;100.00;97193.03;5035103;28;20420;-91
2022/03/04 00:38:58;;;;;;;65.45;32.78;;;;;;;-0.81;100.00;97183.59;5018718;28;20025;-90
2022/03/04 00:41:24;;;;;;;68.53;31.77;;;;;;;-0.80;100.00;97192.31;5025322;28;20033;-91
2022/03/04 00:43:51;;;;;;;54.97;27.90;;;;;;;-0.92;100.00;97182.13;5052719;28;20513;-90
2022/03/04 00:46:17;;;;;;;56.47;27.75;;;;;;;-0.82;100.00;97196.72;5029622;28;20032;-90
2022/03/04 00:48:43;;;;;;;65.38;29.83;;;;;;;-0.88;100.00;97184.63;5028470;28;20409;-89
2022/03/04 00:51:10;;;;;;;65.20;30.17;;;;;;;-0.91;100.00;97173.31;5034056;28;20417;-90
2022/03/04 00:53:35;;;;;;;66.25;30.20;;;;;;;-0.93;100.00;97180.38;5031468;28;20045;-91
2022/03/04 00:56:01;;;;;;;69.28;30.10;;;;;;;-0.91;100.00;97189.94;5033724;28;20036;-90
2022/03/04 00:58:27;;;;;;;72.15;31.55;;;;;;;-0.91;100.00;97191.69;5039630;28;20068;-90
2022/03/04 01:00:52;;;;;;;62.20;30.67;;;;;;;-0.98;100.00;97175.22;5021229;28;20032;-91
2022/03/04 01:03:18;;;;;;;76.00;30.15;;;;;;;-1.08;100.00;97160.59;5038757;28;20032;-90
2022/03/04 01:05:44;;;;;;;82.53;33.05;;;;;;;-1.12;100.00;97172.06;5036893;28;20440;-90
2022/03/04 01:08:10;;;;;;;77.70;29.70;;;;;;;-1.18;100.00;97159.06;5038616;28;20488;-89
2022/03/04 01:10:37;;;;;;;51.70;24.60;;;;;;;-1.08;100.00;97164.97;5036943;28;20083;-89
2022/03/04 01:13:03;;;;;;;55.40;25.23;;;;;;;-1.05;100.00;97180.66;5034245;28;20060;-91
2022/03/04 01:15:29;;;;;;;58.53;28.02;;;;;;;-1.06;100.00;97173.66;5033281;28;20453;-90
2022/03/04 01:17:55;;;;;;;56.40;24.63;;;;;;;-1.15;100.00;97159.00;5035975;28;20033;-89
2022/03/04 01:20:22;;;;;;;70.72;28.38;;;;;;;-1.13;100.00;97170.31;5038014;28;20516;-90
2022/03/04 01:22:47;;;;;;;63.63;28.98;;;;;;;-1.30;100.00;97134.00;5029536;28;20029;-89
2022/03/04 01:25:13;;;;;;;66.20;26.10;;;;;;;-1.11;100.00;97158.06;5027426;28;20024;-91
2022/03/04 01:27:39;;;;;;;58.28;29.30;;;;;;;-1.16;100.00;97162.50;5032285;28;20036;-90
2022/03/04 01:30:07;;;;;;;68.85;29.70;;;;;;;-1.16;100.00;97152.03;5029083;28;20029;-90
2022/03/04 01:32:32;;;;;;;77.47;34.13;;;;;;;-1.20;100.00;97150.38;5039100;28;20520;-89
2022/03/04 01:34:58;;;;;;;66.00;31.35;;;;;;;-1.20;100.00;97140.72;5026178;28;20025;-90
2022/03/04 01:37:23;;;;;;;92.35;40.05;;;;;;;-1.19;100.00;97138.97;5039085;28;20393;-90
2022/03/04 01:39:49;;;;;;;71.50;35.30;;;;;;;-1.20;100.00;97125.00;5028058;28;20390;-90
2022/03/04 01:42:15;;;;;;;81.85;33.65;;;;;;;-1.24;100.00;97139.09;5042112;28;20052;-89
2022/03/04 01:44:41;;;;;;;81.13;33.33;;;;;;;-1.18;100.00;97138.09;5031520;28;20488;-90
2022/03/04 01:47:07;;;;;;;69.15;31.20;;;;;;;-1.33;100.00;97126.19;5030267;28;20504;-91
2022/03/04 01:49:33;;;;;;;72.60;31.63;;;;;;;-1.23;100.00;97146.03;5018878;28;20068;-88
2022/03/04 01:51:58;;;;;;;72.10;32.47;;;;;;;-1.22;100.00;97136.41;5044306;28;20037;-90
2022/03/04 01:54:24;;;;;;;65.53;32.55;;;;;;;-1.23;100.00;97143.41;5029900;28;20607;-90
2022/03/04 01:56:50;;;;;;;85.45;36.17;;;;;;;-1.22;100.00;97137.28;5035482;28;20048;-90
2022/03/04 01:59:15;;;;;;;86.55;36.65;;;;;;;-1.08;100.00;97134.38;5021256;28;20032;-90
2022/03/04 02:01:42;;;;;;;86.30;36.90;;;;;;;-1.08;100.00;97139.63;5025410;28;20053;-90
2022/03/04 02:04:07;;;;;;;79.93;35.20;;;;;;;-1.04;100.00;97133.38;5033274;28;20021;-90
2022/03/04 02:06:33;;;;;;;75.18;34.83;;;;;;;-1.00;100.00;97145.53;5023758;28;20119;-91
2022/03/04 02:08:59;;;;;;;89.45;37.22;;;;;;;-0.95;100.00;97146.28;5025502;28;20099;-89
2022/03/04 02:11:24;;;;;;;73.47;31.17;;;;;;;-1.00;100.00;97139.41;5036505;28;20055;-89
2022/03/04 02:13:50;;;;;;;74.97;33.47;;;;;;;-1.03;100.00;97135.13;5026504;28;20112;-89
2022/03/04 02:16:26;;;;;;;69.80;33.03;;;;;;;-0.97;100.00;97139.34;5033162;28;20033;-91
2022/03/04 02:18:52;;;;;;;77.75;35.05;;;;;;;-1.04;100.00;97135.13;5030304;28;20027;-89
2022/03/04 02:21:20;;;;;;;103.68;42.17;;;;;;;-1.10;100.00;97133.50;5033376;28;20017;-89
2022/03/04 02:23:47;;;;;;;77.72;35.08;;;;;;;-1.15;100.00;97124.91;5026572;28;20036;-89
2022/03/04 02:26:13;;;;;;;66.20;31.00;;;;;;;-1.17;100.00;97124.91;5035372;28;20454;-88
2022/03/04 02:28:38;;;;;;;78.32;32.78;;;;;;;-1.14;100.00;97121.38;5029067;28;20032;-89
2022/03/04 02:31:04;;;;;;;84.88;36.83;;;;;;;-1.09;100.00;97127.38;5036637;28;20025;-89
2022/03/04 02:33:29;;;;;;;74.45;34.20;;;;;;;-1.17;100.00;97119.66;5034196;28;20473;-90
2022/03/04 02:35:55;;;;;;;71.07;33.97;;;;;;;-1.21;100.00;97123.28;5027149;28;20048;-89
2022/03/04 02:38:21;;;;;;;94.78;37.33;;;;;;;-1.18;100.00;97122.34;5029459;28;20091;-90
2022/03/04 02:40:46;;;;;;;80.10;35.65;;;;;;;-1.25;100.00;97132.13;5035134;28;20025;-90
2022/03/04 02:43:12;;;;;;;90.55;37.58;;;;;;;-1.24;100.00;97136.47;5028978;28;20025;-89
2022/03/04 02:45:38;;;;;;;80.63;36.97;;;;;;;-1.26;100.00;97125.13;5025557;28;20108;-90
2022/03/04 02:48:03;;;;;;;81.20;34.30;;;;;;;-1.31;100.00;97129.63;5044107;28;20111;-89
2022/03/04 02:50:29;;;;;;;74.43;34.28;;;;;;;-1.24;100.00;97135.59;5059111;28;20045;-89
2022/03/04 02:52:56;;;;;;;88.25;35.95;;;;;;;-1.50;100.00;97111.69;5043422;28;20053;-90
2022/03/04 02:55:22;;;;;;;83.55;33.78;;;;;;;-1.40;100.00;97128.97;5057132;28;20028;-90
2022/03/04 02:57:48;;;;;;;73.68;33.53;;;;;;;-1.40;100.00;97131.59;5049381;28;20029;-89
2022/03/04 03:00:16;;;;;;;80.80;33.67;;;;;;;-1.48;100.00;97123.91;5052828;28;20048;-89
2022/03/04 03:02:42;;;;;;;74.90;33.60;;;;;;;-1.54;100.00;97120.53;5047272;28;20088;-90
2022/03/04 03:05:09;;;;;;;81.60;33.33;;;;;;;-1.39;100.00;97133.31;5045467;28;20114;-89
2022/03/04 03:07:34;;;;;;;78.53;31.73;;;;;;;-1.43;100.00;97115.91;5041748;28;20080;-89
2022/03/04 03:10:00;;;;;;;66.45;30.27;;;;;;;-1.47;100.00;97109.88;5035248;28;20033;-90
2022/03/04 03:12:26;;;;;;;59.10;26.10;;;;;;;-1.46;100.00;97118.59;5036621;28;20033;-90
2022/03/04 03:14:51;;;;;;;48.05;23.63;;;;;;;-1.40;100.00;97123.72;5026438;28;20029;-90
2022/03/04 03:17:17;;;;;;;52.03;24.02;;;;;;;-1.42;100.00;97130.75;5018495;28;20033;-89
2022/03/04 03:19:43;;;;;;;45.35;21.33;;;;;;;-1.43;100.00;97122.03;5030695;28;20025;-89
2022/03/04 03:22:09;;;;;;;46.85;20.67;;;;;;;-1.53;100.00;97114.38;5025917;28;20029;-89
2022/03/04 03:24:35;;;;;;;50.85;22.98;;;;;;;-1.43;100.00;97132.53;5037942;28;20543;-88
2022/03/04 03:27:00;;;;;;;58.30;25.13;;;;;;;-1.48;100.00;97123.03;5038215;28;20056;-89
2022/03/04 03:29:26;;;;;;;66.45;26.98;;;;;;;-1.51;100.00;97117.84;5035770;28;20025;-88
2022/03/04 03:31:53;;;;;;;87.32;33.20;;;;;;;-1.49;100.00;97140.53;5018101;28;20045;-89
2022/03/04 03:34:19;;;;;;;88.28;31.70;;;;;;;-1.83;100.00;97115.91;5025949;28;20056;-89
2022/03/04 03:36:44;;;;;;;84.35;29.80;;;;;;;-1.83;100.00;97126.38;5025023;28;20061;-89
2022/03/04 03:39:10;;;;;;;76.90;27.95;;;;;;;-1.76;100.00;97123.63;5037048;28;20128;-89
2022/03/04 03:41:36;;;;;;;61.00;26.55;;;;;;;-1.82;100.00;97123.75;5041610;28;20040;-90
2022/03/04 03:44:02;;;;;;;63.95;25.35;;;;;;;-1.91;100.00;97113.47;5053000;28;20436;-89
2022/03/04 03:46:28;;;;;;;63.17;25.55;;;;;;;-1.76;100.00;97138.47;5022703;28;20063;-90
2022/03/04 03:48:53;;;;;;;61.85;27.20;;;;;;;-1.71;100.00;97140.09;5026584;28;20067;-90
2022/03/04 03:51:19;;;;;;;62.95;26.15;;;;;;;-1.83;100.00;97127.25;5028945;28;20408;-90
2022/03/04 03:53:45;;;;;;;60.10;26.05;;;;;;;-1.83;100.00;97132.50;5012727;28;20030;-90
2022/03/04 03:56:11;;;;;;;55.90;25.35;;;;;;;-1.82;100.00;97129.00;5012111;28;20033;-90
2022/03/04 03:58:37;;;;;;;53.03;25.15;;;;;;;-1.78;100.00;97142.88;5002962;28;20132;-90
2022/03/04 04:01:03;;;;;;;58.40;25.70;;;;;;;-1.82;100.00;97134.22;5016051;28;20021;-89
2022/03/04 04:03:29;;;;;;;54.25;23.88;;;;;;;-1.79;100.00;97128.94;5017299;28;20044;-90
2022/03/04 04:05:54;;;;;;;49.75;24.70;;;;;;;-1.81;100.00;97135.94;5016941;28;20453;-90
2022/03/04 04:08:20;;;;;;;50.17;25.13;;;;;;;-1.81;100.00;97138.56;5031352;28;20040;-88
2022/03/04 04:10:46;;;;;;;51.65;23.95;;;;;;;-1.73;100.00;97135.78;5004894;28;20037;-89
2022/03/04 04:13:11;;;;;;;60.47;26.48;;;;;;;-1.81;100.00;97130.69;5014087;28;20036;-89
2022/03/04 04:15:37;;;;;;;83.07;32.25;;;;;;;-1.81;100.00;97138.56;5020858;28;20112;-90
2022/03/04 04:18:04;;;;;;;73.15;31.00;;;;;;;-1.84;100.00;97145.59;5015588;28;20057;-90
2022/03/04 04:20:30;;;;;;;100.68;38.05;;;;;;;-1.85;100.00;97134.28;5037561;28;20493;-90
2022/03/04 04:22:56;;;;;;;72.95;31.67;;;;;;;-1.83;100.00;97137.75;5027942;28;20025;-90
2022/03/04 04:25:22;;;;;;;91.93;35.72;;;;;;;-1.88;100.00;97130.88;5018399;28;20093;-91
2022/03/04 04:27:47;;;;;;;110.63;43.22;;;;;;;-1.80;100.00;97152.53;5014703;28;20036;-90
2022/03/04 04:30:13;;;;;;;176.95;65.53;;;;;;;-1.87;100.00;97137.81;5021554;28;20086;-89
2022/03/04 04:32:41;;;;;;;135.98;50.10;;;;;;;-1.78;100.00;97148.97;4996825;28;20049;-90
2022/03/04 04:35:10;;;;;;;135.45;51.63;;;;;;;-1.77;100.00;97150.72;5020422;28;20401;-88
2022/03/04 04:40:31;;;;;;;115.80;46.88;;;;;;;-1.96;100.00;97140.63;5013391;28;20076;-89
2022/03/04 04:42:57;;;;;;;107.53;44.47;;;;;;;-1.93;100.00;97141.41;5020726;28;20037;-88
2022/03/04 04:45:22;;;;;;;106.57;41.67;;;;;;;-2.16;100.00;97127.91;5019435;28;20107;-88
2022/03/04 04:47:48;;;;;;;68.45;31.98;;;;;;;-2.07;100.00;97156.56;5012140;28;21495;-86
2022/03/04 04:50:14;;;;;;;86.18;33.53;;;;;;;-2.26;100.00;97135.09;5025794;28;20029;-90
2022/03/04 04:52:39;;;;;;;78.97;33.28;;;;;;;-2.28;100.00;97149.94;4972897;28;1322863;-88
2022/03/04 04:55:05;;;;;;;72.85;33.10;;;;;;;-2.29;100.00;97142.13;5034408;28;20110;-91
2022/03/04 04:57:31;;;;;;;82.40;36.83;;;;;;;-2.20;100.00;97153.31;5042274;28;20036;-89
2022/03/04 04:59:56;;;;;;;81.55;36.42;;;;;;;-2.33;100.00;97135.22;5029244;28;20074;-89
2022/03/04 05:02:22;;;;;;;83.32;39.00;;;;;;;-2.25;100.00;97146.44;5034265;28;20119;-90
2022/03/04 05:04:48;;;;;;;90.03;40.05;;;;;;;-2.25;100.00;97146.44;5040586;28;20039;-90
2022/03/04 05:07:13;;;;;;;87.13;39.38;;;;;;;-2.17;100.00;97152.38;5037988;28;20029;-90
2022/03/04 05:09:39;;;;;;;96.78;43.67;;;;;;;-2.07;100.00;97163.53;5037183;28;20032;-89
2022/03/04 05:12:05;;;;;;;107.13;48.40;;;;;;;-1.99;100.00;97170.38;5031639;28;20020;-90
2022/03/04 05:14:31;;;;;;;90.68;43.33;;;;;;;-2.19;100.00;97143.69;5039595;28;20040;-90
2022/03/04 05:16:56;;;;;;;103.78;47.50;;;;;;;-2.11;100.00;97167.97;5040935;28;20142;-89
2022/03/04 05:19:22;;;;;;;110.93;48.72;;;;;;;-1.93;100.00;97161.50;5029897;28;20036;-89
2022/03/04 05:21:47;;;;;;;138.45;58.72;;;;;;;-1.79;100.00;97163.00;5028881;28;20051;-89
2022/03/04 05:24:13;;;;;;;124.13;48.80;;;;;;;-1.57;100.00;97170.44;5034559;28;20455;-90
2022/03/04 05:26:44;;;;;;;131.52;55.72;;;;;;;-1.37;100.00;97178.72;5048881;28;20086;-91
2022/03/04 05:29:12;;;;;;;123.07;55.25;;;;;;;-1.20;100.00;97172.22;5024587;28;20024;-90
2022/03/04 05:31:46;;;;;;;118.68;53.92;;;;;;;-1.14;100.00;97143.22;5038717;28;20094;-89
2022/03/04 05:34:12;;;;;;;111.72;47.13;;;;;;;-0.87;100.00;97175.84;5051139;28;20036;-90
2022/03/04 05:36:38;;;;;;;109.38;48.13;;;;;;;-0.92;100.00;97156.72;5045963;28;20031;-89
2022/03/04 05:39:05;;;;;;;134.05;50.28;;;;;;;-0.96;100.00;97148.97;5046653;28;20044;-90
2022/03/04 05:41:30;;;;;;;184.68;62.20;;;;;;;-1.21;100.00;97101.44;5046443;28;20040;-90
2022/03/04 05:43:56;;;;;;;159.23;53.72;;;;;;;-0.91;100.00;97155.81;5033810;28;20050;-91
2022/03/04 05:46:22;;;;;;;134.25;51.70;;;;;;;-0.74;100.00;97160.69;5030793;28;20039;-91
2022/03/04 05:51:32;;;;;;;124.90;54.50;;;;;;;-0.52;100.00;97182.03;5055723;28;20139;-88
2022/03/04 05:53:57;;;;;;;146.23;54.55;;;;;;;-0.41;100.00;97169.50;5016166;28;20483;-88
2022/03/04 05:56:23;;;;;;;134.27;53.33;;;;;;;-0.30;100.00;97167.44;5021710;28;20131;-90
2022/03/04 05:58:50;;;;;;;140.70;55.70;;;;;;;-0.41;100.00;97177.38;5014307;28;20048;-89
2022/03/04 06:01:15;;;;;;;138.77;52.70;;;;;;;-0.18;100.00;97203.91;5010383;28;20029;-91
2022/03/04 06:03:41;;;;;;;140.48;55.97;;;;;;;-0.15;100.00;97191.56;5023536;28;20043;-91
2022/03/04 06:06:11;;;;;;;126.18;52.70;;;;;;;-0.28;100.00;97171.78;5033434;28;20035;-91
2022/03/04 06:08:37;;;;;;;156.80;66.35;;;;;;;-0.14;100.00;97190.66;5007808;28;20045;-91
2022/03/04 06:11:03;;;;;;;141.98;59.00;;;;;;;-0.16;100.00;97173.22;5003169;28;20037;-90
2022/03/04 06:13:32;;;;;;;114.63;48.05;;;;;;;-0.11;100.00;97163.44;5010263;28;20036;-91
2022/03/04 06:15:59;;;;;;;213.27;80.72;;;;;;;0.07;99.17;97173.47;5001745;28;20391;-91
2022/03/04 06:18:24;;;;;;;213.25;76.60;;;;;;;0.06;98.60;97178.78;5008065;28;20040;-90
2022/03/04 06:20:50;;;;;;;197.52;68.43;;;;;;;0.35;98.05;97191.97;5020203;28;20063;-89
2022/03/04 06:23:15;;;;;;;248.85;93.85;;;;;;;0.43;96.36;97182.97;5007026;28;20516;-90
2022/03/04 06:25:41;;;;;;;185.35;73.97;;;;;;;0.51;95.41;97170.47;5021666;28;20041;-89
2022/03/04 06:28:07;;;;;;;175.07;74.53;;;;;;;0.72;94.47;97202.34;5020272;28;20032;-92
2022/03/04 06:30:34;;;;;;;182.98;83.68;;;;;;;0.75;93.48;97181.19;4998579;28;20041;-90
2022/03/04 06:35:45;;;;;;;172.93;79.25;;;;;;;1.11;91.63;97201.16;5028131;28;20035;-91
2022/03/04 06:38:11;;;;;;;148.05;61.53;;;;;;;1.29;90.60;97190.06;5018203;28;20040;-91
2022/03/04 06:40:37;;;;;;;182.32;78.60;;;;;;;1.66;88.94;97184.50;5018740;28;20037;-90
2022/03/04 06:43:05;;;;;;;171.77;75.72;;;;;;;2.07;85.23;97198.91;5013484;28;20449;-78
2022/03/04 06:45:31;;;;;;;156.10;65.90;;;;;;;2.33;84.09;97193.59;5018025;28;20029;-90
2022/03/04 06:47:57;;;;;;;154.85;65.35;;;;;;;2.70;82.13;97199.28;5003808;28;20381;-90
2022/03/04 06:50:23;;;;;;;148.90;63.78;;;;;;;3.08;78.91;97210.16;5006714;28;20045;-90
2022/03/04 06:52:50;;;;;;;150.77;62.78;;;;;;;3.72;76.60;97179.44;5015676;28;20048;-91
2022/03/04 06:55:16;;;;;;;153.07;64.25;;;;;;;4.02;73.35;97193.19;5022963;28;20033;-90
2022/03/04 06:57:42;;;;;;;104.82;50.10;;;;;;;3.99;72.37;97173.03;5036659;28;20025;-89
2022/03/04 07:00:10;;;;;;;101.60;49.35;;;;;;;3.91;70.92;97190.13;5041359;28;20408;-89
2022/03/04 07:02:37;;;;;;;109.13;50.55;;;;;;;4.09;70.79;97208.72;5030192;28;20028;-89
2022/03/04 07:05:07;;;;;;;76.70;38.55;;;;;;;4.01;70.49;97209.97;5038454;28;20083;-90
2022/03/04 07:07:32;;;;;;;77.18;39.00;;;;;;;3.41;71.57;97216.84;5024596;28;20031;-90
2022/03/04 07:09:58;;;;;;;86.18;38.60;;;;;;;3.24;71.91;97193.69;5031975;28;20032;-91
2022/03/04 07:12:24;;;;;;;74.38;36.65;;;;;;;3.14;72.59;97212.56;5041328;28;20094;-90
2022/03/04 07:14:50;;;;;;;96.32;39.10;;;;;;;3.08;74.43;97216.31;5031748;28;20443;-75
2022/03/04 07:17:16;;;;;;;66.75;33.40;;;;;;;3.15;74.58;97222.25;5058820;28;20024;-88
2022/03/04 07:19:42;;;;;;;68.55;33.45;;;;;;;3.09;74.51;97211.91;5027247;28;20136;-88
2022/03/04 07:22:08;;;;;;;63.85;33.22;;;;;;;3.00;75.01;97212.25;5018995;28;20032;-88
2022/03/04 07:24:34;;;;;;;78.82;34.63;;;;;;;3.19;74.68;97226.50;5019558;28;20035;-89
2022/03/04 07:26:59;;;;;;;72.82;33.20;;;;;;;3.12;74.12;97212.66;5027635;28;20097;-88
2022/03/04 07:29:25;;;;;;;71.72;35.67;;;;;;;3.38;73.28;97216.94;5024818;28;20035;-89
2022/03/04 07:31:53;;;;;;;78.43;38.40;;;;;;;3.36;73.63;97204.69;5042042;28;20029;-89
2022/03/04 07:34:20;;;;;;;77.13;38.60;;;;;;;3.59;72.28;97199.38;5043374;28;20041;-88
2022/03/04 07:36:46;;;;;;;78.00;36.95;;;;;;;4.01;70.59;97202.03;5058284;28;20024;-89
2022/03/04 07:39:12;;;;;;;81.22;38.17;;;;;;;4.60;68.45;97210.94;5034834;28;20032;-88
2022/03/04 07:41:38;;;;;;;70.97;37.17;;;;;;;5.15;65.46;97193.44;5022739;28;20028;-89
2022/03/04 07:44:04;;;;;;;84.68;41.45;;;;;;;5.64;62.45;97168.09;5038499;28;20056;-88
2022/03/04 07:46:29;;;;;;;71.55;37.63;;;;;;;6.72;58.72;97171.44;5033292;28;20444;-89
2022/03/04 07:48:55;;;;;;;86.45;40.47;;;;;;;7.15;57.01;97159.38;5023454;28;20029;-88
2022/03/04 07:51:21;;;;;;;89.57;45.10;;;;;;;7.83;54.89;97158.16;5024648;28;20025;-88
2022/03/04 07:53:46;;;;;;;79.88;41.25;;;;;;;8.24;52.84;97158.44;5023684;28;20112;-88
2022/03/04 07:56:12;;;;;;;103.45;48.35;;;;;;;8.10;53.84;97169.03;5039618;28;20144;-87
2022/03/04 07:58:38;;;;;;;120.10;60.35;;;;;;;8.33;52.65;97151.72;5041869;28;20025;-89
2022/03/04 08:01:03;;;;;;;108.30;56.28;;;;;;;8.80;51.97;97160.38;5024222;28;20168;-88
2022/03/04 08:03:29;;;;;;;119.07;53.88;;;;;;;8.87;51.17;97161.72;5023597;28;20025;-89
2022/03/04 08:05:55;;;;;;;114.13;59.00;;;;;;;9.81;48.93;97140.53;5025270;28;20505;-88
2022/03/04 08:08:21;;;;;;;82.85;43.38;;;;;;;10.26;47.51;97160.72;5024197;28;20039;-89
2022/03/04 08:10:46;;;;;;;87.72;44.47;;;;;;;10.24;47.13;97145.75;5024906;28;20021;-88
2022/03/04 08:13:12;;;;;;;82.00;43.60;;;;;;;9.81;47.44;97139.69;5023565;28;20021;-89
2022/03/04 08:15:37;;;;;;;84.63;43.60;;;;;;;10.15;47.32;97147.22;5023357;28;20041;-89
2022/03/04 08:18:03;;;;;;;86.82;47.13;;;;;;;10.10;46.75;97138.63;5023798;28;20028;-89
2022/03/04 08:20:31;;;;;;;98.88;49.60;;;;;;;9.55;47.98;97138.72;5023358;28;20040;-88
2022/03/04 08:22:57;;;;;;;101.50;50.88;;;;;;;9.23;49.08;97153.22;5023815;28;20492;-89
2022/03/04 08:25:23;;;;;;;118.20;47.67;;;;;;;9.25;49.25;97148.69;5023644;28;20029;-87
2022/03/04 08:28:07;;;;;;;91.22;45.70;;;;;;;9.51;48.60;97169.22;5024072;28;20142;-88
2022/03/04 08:30:33;;;;;;;73.80;37.85;;;;;;;9.47;48.46;97158.84;5038501;28;20094;-89
2022/03/04 08:32:59;;;;;;;67.07;32.72;;;;;;;8.71;49.53;97174.25;5022747;28;20048;-89
2022/03/04 08:35:25;;;;;;;70.68;33.58;;;;;;;9.15;49.26;97152.88;5022918;28;20052;-88
2022/03/04 08:37:52;;;;;;;71.18;34.78;;;;;;;9.51;48.48;97166.56;5022386;28;20519;-88
2022/03/04 08:40:18;;;;;;;86.82;42.47;;;;;;;10.05;46.99;97143.44;5022769;28;20039;-88
2022/03/04 08:42:44;;;;;;;65.07;36.65;;;;;;;10.74;45.79;97171.72;5022706;28;20120;-89
2022/03/04 08:45:10;;;;;;;71.97;39.25;;;;;;;10.78;45.41;97166.06;5022919;28;20055;-88
2022/03/04 08:47:38;;;;;;;81.70;41.90;;;;;;;10.77;44.74;97137.59;5022436;28;20032;-88
2022/03/04 08:50:05;;;;;;;95.43;42.83;;;;;;;11.10;44.27;97152.28;5022022;28;20492;-88
2022/03/04 08:52:31;;;;;;;83.20;42.30;;;;;;;11.17;44.12;97165.09;5022396;28;20526;-88
2022/03/04 08:55:00;;;;;;;87.30;44.00;;;;;;;11.09;44.45;97140.72;5022964;28;20128;-89
2022/03/04 08:57:25;;;;;;;95.30;46.20;;;;;;;12.27;42.15;97141.91;5022273;28;20128;-89
2022/03/04 08:59:51;;;;;;;52.85;27.67;;;;;;;12.87;40.23;97131.84;5021742;28;20029;-89
2022/03/04 09:02:18;;;;;;;42.42;21.40;;;;;;;13.17;38.51;97112.47;5024141;28;20075;-90
2022/03/04 09:04:44;;;;;;;62.72;37.05;;;;;;;15.12;36.84;97120.31;5039995;28;20074;-89
2022/03/04 09:07:09;;;;;;;80.20;42.60;;;;;;;15.14;36.53;97109.38;5021112;28;20414;-79
2022/03/04 09:09:35;;;;;;;89.28;38.78;;;;;;;15.10;36.02;97113.34;5039035;28;20042;-78
2022/03/04 09:12:01;;;;;;;70.32;36.30;;;;;;;14.62;36.44;97119.25;5025630;28;20510;-75
2022/03/04 09:14:27;;;;;;;59.53;34.53;;;;;;;15.46;34.97;97111.94;5026285;28;20029;-75
2022/03/04 09:16:53;;;;;;;84.68;39.42;;;;;;;16.72;34.53;97114.78;5024488;28;20021;-75
2022/03/04 09:19:19;;;;;;;73.43;38.17;;;;;;;17.30;33.26;97105.56;5023106;28;20040;-89
2022/03/04 09:25:07;;;;;;;52.13;33.00;;;;;;;16.58;33.14;97094.44;5056725;28;20055;-88
2022/03/04 09:27:33;;;;;;;43.13;24.55;;;;;;;15.83;33.29;97096.91;5021298;28;20025;-88
2022/03/04 09:29:58;;;;;;;42.33;23.42;;;;;;;16.43;31.91;97090.44;5038844;28;20031;-87
2022/03/04 09:32:24;;;;;;;42.35;20.92;;;;;;;17.93;30.18;97092.22;5023358;28;20025;-72
2022/03/04 09:34:50;;;;;;;33.50;19.40;;;;;;;19.39;28.28;97072.66;5041004;28;20078;-73
2022/03/04 09:37:16;;;;;;;27.75;16.25;;;;;;;19.65;27.40;97073.53;5034428;28;20119;-75
2022/03/04 09:39:41;;;;;;;30.77;17.05;;;;;;;18.92;28.60;97074.88;5052646;28;20102;-73
2022/03/04 09:42:07;;;;;;;25.00;15.38;;;;;;;19.14;27.36;97065.38;5050109;28;20104;-73
2022/03/04 09:44:33;;;;;;;24.77;12.45;;;;;;;19.31;26.08;97054.50;5043152;28;20035;-74
2022/03/04 09:47:01;;;;;;;22.55;12.57;;;;;;;18.06;26.87;97062.91;5034321;28;20426;-73
2022/03/04 09:49:36;;;;;;;24.92;13.95;;;;;;;15.70;29.92;97061.25;5023406;28;20071;-74
2022/03/04 09:52:06;;;;;;;22.65;13.20;;;;;;;15.89;30.15;97076.63;5041957;28;20400;-73
2022/03/04 09:54:35;;;;;;;31.15;14.82;;;;;;;17.49;29.11;97065.91;5037669;28;20086;-73
2022/03/04 09:57:00;;;;;;;40.53;18.65;;;;;;;18.83;27.54;97060.44;5037658;28;20032;-73
2022/03/04 09:59:26;;;;;;;27.98;11.98;;;;;;;19.73;26.14;97049.13;5029171;28;20040;-74
2022/03/04 10:01:52;;;;;;;24.88;13.40;;;;;;;20.35;25.12;97039.63;5063392;28;20113;-73
2022/03/04 10:04:17;;;;;;;19.88;12.80;;;;;;;19.88;25.75;97043.91;5040381;28;20024;-73
2022/03/04 10:06:48;;;;;;;38.33;17.55;;;;;;;21.64;24.04;97041.38;5042933;28;20040;-73
2022/03/04 10:09:41;;;;;;;30.63;19.02;;;;;;;22.37;23.92;97030.09;5049388;28;20107;-73
2022/03/04 10:12:07;;;;;;;31.92;12.00;;;;;;;22.90;22.48;97010.94;5034297;28;20448;-73
2022/03/04 10:14:34;;;;;;;29.05;12.32;;;;;;;21.82;23.45;97024.78;5032832;28;20025;-74
2022/03/04 10:16:59;;;;;;;27.90;15.07;;;;;;;18.77;25.71;97016.84;5053738;28;20024;-73
2022/03/04 10:19:25;;;;;;;36.80;18.77;;;;;;;19.70;25.75;97027.72;5022899;28;20031;-74
2022/03/04 10:21:57;;;;;;;23.10;13.38;;;;;;;19.94;25.43;97025.09;5035287;28;20021;-73
2022/03/04 10:24:32;;;;;;;25.55;16.27;;;;;;;19.41;26.14;97021.84;5053846;28;20020;-74
2022/03/04 10:27:18;;;;;;;24.38;14.20;;;;;;;19.55;26.62;97018.50;5053568;28;20111;-73
2022/03/04 10:29:49;;;;;;;31.08;14.45;;;;;;;20.24;25.85;97025.50;5053374;28;20040;-73
2022/03/04 10:32:20;;;;;;;18.23;10.38;;;;;;;18.96;25.61;97000.38;5032630;28;20031;-72
2022/03/04 10:34:50;;;;;;;18.65;11.65;;;;;;;20.30;24.37;96992.25;5041774;28;20083;-73
2022/03/04 10:37:19;;;;;;;15.60;10.05;;;;;;;20.18;24.24;96999.00;5051589;28;20024;-73
2022/03/04 10:40:02;;;;;;;19.83;8.50;;;;;;;21.35;23.02;96997.59;5017066;28;20029;-73
2022/03/04 10:42:48;;;;;;;17.73;9.50;;;;;;;20.71;23.99;96987.66;5033488;28;20120;-73
2022/03/04 10:45:18;;;;;;;19.52;9.70;;;;;;;21.31;24.04;96998.97;5037774;28;20403;-73
2022/03/04 10:47:50;;;;;;;30.13;14.15;;;;;;;21.61;23.68;96988.13;5063384;28;20029;-72
2022/03/04 10:50:18;;;;;;;20.13;10.38;;;;;;;21.89;22.75;96980.34;5041654;28;20028;-73
2022/03/04 10:52:51;;;;;;;24.45;10.43;;;;;;;23.38;21.79;96979.56;5013473;28;20080;-73
2022/03/04 10:55:41;;;;;;;21.75;11.73;;;;;;;20.69;23.52;96976.97;5025751;28;20044;-73
2022/03/04 10:58:20;;;;;;;16.90;9.88;;;;;;;19.92;23.84;96978.25;5049707;28;20492;-72
2022/03/04 11:00:49;;;;;;;23.15;12.05;;;;;;;20.51;24.01;96979.88;5029150;28;20051;-75
2022/03/04 11:03:21;;;;;;;18.33;10.48;;;;;;;21.19;23.48;96978.59;5039417;28;20082;-72
2022/03/04 11:05:48;;;;;;;17.65;9.70;;;;;;;20.49;24.12;96975.59;5047307;28;20484;-72
2022/03/04 11:08:14;;;;;;;15.43;8.73;;;;;;;19.03;24.92;96968.06;5022167;28;20029;-74
2022/03/04 11:10:40;;;;;;;17.10;9.48;;;;;;;20.35;23.87;96977.16;5035261;28;20030;-77
2022/03/04 11:13:08;;;;;;;13.50;8.23;;;;;;;20.80;22.67;96952.13;5046498;28;20539;-79
2022/03/04 11:15:34;;;;;;;13.13;8.02;;;;;;;21.23;22.63;96966.31;5032254;28;20044;-74
2022/03/04 11:18:06;;;;;;;14.30;8.85;;;;;;;19.97;24.19;96959.59;5025147;28;20029;-90
2022/03/04 11:20:32;;;;;;;22.38;10.50;;;;;;;20.55;24.12;96958.59;5023327;28;20041;-89
2022/03/04 11:22:58;;;;;;;12.95;8.02;;;;;;;19.17;24.38;96935.75;5041452;28;20041;-88